createdAt,value
2019-05-18T00:03:48.281Z,11.90
2019-05-18T00:13:53.788Z,11.70
2019-05-18T00:23:59.034Z,11.50
2019-05-18T00:34:04.536Z,11.50
2019-05-18T00:44:10.034Z,11.30
2019-05-18T00:54:15.299Z,11.20
2019-05-18T01:04:20.552Z,11.10
2019-05-18T01:14:25.903Z,11.00
2019-05-18T01:24:31.524Z,11.00
2019-05-18T01:34:37.147Z,10.80
2019-05-18T01:44:42.456Z,10.70
2019-05-18T01:54:47.863Z,10.60
2019-05-18T02:04:53.445Z,10.60
2019-05-18T02:14:59.055Z,10.40
2019-05-18T02:25:04.911Z,10.30
2019-05-18T02:35:10.752Z,10.20
2019-05-18T02:45:16.022Z,10.10
2019-05-18T02:55:21.583Z,10.10
2019-05-18T03:05:27.008Z,9.90
2019-05-18T03:15:33.193Z,9.90
2019-05-18T03:25:38.532Z,9.80
2019-05-18T03:35:44.035Z,9.80
2019-05-18T03:45:49.535Z,9.70
2019-05-18T03:55:54.996Z,9.70
2019-05-18T04:06:00.266Z,9.70
2019-05-18T04:16:05.518Z,9.80
2019-05-18T04:26:10.751Z,9.90
2019-05-18T04:36:15.993Z,9.90
2019-05-18T04:46:21.245Z,10.10
2019-05-18T04:56:26.572Z,10.30
2019-05-18T05:06:31.833Z,10.50
2019-05-18T05:16:37.115Z,10.60
2019-05-18T05:26:42.428Z,10.80
2019-05-18T05:36:47.938Z,11.00
2019-05-18T05:46:53.203Z,11.10
2019-05-18T05:56:58.468Z,11.40
2019-05-18T06:07:03.886Z,11.70
2019-05-18T06:17:09.219Z,12.00
2019-05-18T06:27:14.595Z,12.30
2019-05-18T06:37:19.828Z,12.60
2019-05-18T06:47:25.309Z,12.80
2019-05-18T06:57:31.968Z,13.10
2019-05-18T07:07:37.319Z,13.40
2019-05-18T07:17:42.646Z,13.50
2019-05-18T07:27:48.195Z,13.90
2019-05-18T07:37:53.888Z,14.20
2019-05-18T07:47:59.437Z,14.60
2019-05-18T07:58:05.383Z,15.00
2019-05-18T08:08:10.618Z,15.30
2019-05-18T08:18:15.937Z,15.70
2019-05-18T08:28:21.411Z,16.00
2019-05-18T08:38:26.767Z,16.30
2019-05-18T08:48:32.090Z,16.60
2019-05-18T08:58:37.805Z,17.10
2019-05-18T09:08:43.082Z,17.50
2019-05-18T09:18:48.564Z,17.90
2019-05-18T09:28:54.186Z,18.20
2019-05-18T09:38:59.956Z,18.50
2019-05-18T09:49:05.695Z,18.80
2019-05-18T09:59:11.210Z,19.20
2019-05-18T10:09:16.723Z,19.60
2019-05-18T10:19:21.998Z,20.10
2019-05-18T10:29:27.303Z,20.80
2019-05-18T10:39:32.595Z,22.10
2019-05-18T10:49:37.918Z,23.20
2019-05-18T10:59:43.409Z,23.90
2019-05-18T11:09:48.659Z,24.80
2019-05-18T11:19:53.994Z,25.80
2019-05-18T11:29:59.597Z,26.60
2019-05-18T11:40:05.120Z,27.50
2019-05-18T11:50:11.290Z,27.60
2019-05-18T12:00:17.166Z,28.30
2019-05-18T12:10:22.943Z,27.30
2019-05-18T12:20:28.241Z,28.20
2019-05-18T12:30:33.520Z,27.60
2019-05-18T12:40:38.827Z,27.80
2019-05-18T12:50:44.081Z,27.90
2019-05-18T13:00:49.440Z,28.40
2019-05-18T13:10:54.924Z,28.40
2019-05-18T13:21:00.279Z,28.60
2019-05-18T13:31:05.559Z,28.40
2019-05-18T13:41:10.885Z,28.40
2019-05-18T13:51:16.307Z,28.20
2019-05-18T14:01:21.559Z,28.20
2019-05-18T14:11:27.036Z,27.80
2019-05-18T14:21:32.350Z,27.50
2019-05-18T14:31:37.834Z,27.40
2019-05-18T14:41:43.111Z,27.30
2019-05-18T14:51:48.438Z,27.10
2019-05-18T15:01:54.043Z,27.30
2019-05-18T15:11:59.399Z,27.40
2019-05-18T15:22:05.159Z,27.70
2019-05-18T15:32:10.638Z,28.30
2019-05-18T15:42:16.444Z,32.20
2019-05-18T15:52:21.877Z,32.40
2019-05-18T16:02:27.407Z,29.10
2019-05-18T16:12:32.786Z,27.60
2019-05-18T16:22:38.515Z,27.10
2019-05-18T16:32:44.119Z,26.50
2019-05-18T16:42:49.719Z,26.20
2019-05-18T16:52:54.985Z,26.00
2019-05-18T17:03:00.415Z,25.80
2019-05-18T17:13:06.723Z,25.60
2019-05-18T17:23:12.161Z,25.50
2019-05-18T17:33:17.431Z,25.50
2019-05-18T17:43:22.912Z,25.30
2019-05-18T17:53:28.242Z,25.10
2019-05-18T18:03:33.507Z,24.80
2019-05-18T18:13:39.129Z,24.50
2019-05-18T18:23:44.900Z,24.30
2019-05-18T18:33:50.232Z,24.20
2019-05-18T18:43:55.552Z,23.80
2019-05-18T18:54:00.820Z,23.70
2019-05-18T19:04:06.098Z,23.20
2019-05-18T19:14:11.340Z,22.80
2019-05-18T19:24:16.887Z,22.40
2019-05-18T19:34:22.137Z,22.00
2019-05-18T19:44:27.658Z,21.40
2019-05-18T19:54:32.906Z,21.20
2019-05-18T20:04:38.444Z,20.90
2019-05-18T20:14:43.721Z,20.60
2019-05-18T20:24:48.967Z,20.30
2019-05-18T20:34:54.452Z,19.90
2019-05-18T20:45:00.038Z,19.60
2019-05-18T20:55:05.799Z,19.40
2019-05-18T21:05:11.210Z,18.80
2019-05-18T21:15:17.036Z,18.60
2019-05-18T21:25:22.596Z,18.50
2019-05-18T21:35:27.911Z,18.30
2019-05-18T21:45:33.383Z,17.80
2019-05-18T21:55:38.951Z,17.40
2019-05-18T22:05:44.387Z,17.20
2019-05-18T22:15:49.861Z,17.00
2019-05-18T22:25:57.211Z,16.80
2019-05-18T22:36:02.697Z,16.60
2019-05-18T22:46:07.984Z,16.30
2019-05-18T22:56:13.495Z,16.10
2019-05-18T23:06:18.775Z,16.10
2019-05-18T23:16:24.394Z,16.00
2019-05-18T23:26:29.704Z,15.80
2019-05-18T23:36:35.091Z,15.70
2019-05-18T23:46:40.418Z,15.50
2019-05-18T23:56:45.771Z,15.40
